Time;durP1;ratioP1;P1;durP2;ratioP2;P2;SDS_P1;SDS_P2;PMS_P1;PMS_P2;Temp;Humidity;BMP_temperature;BMP_pressure;BME280_temperature;BME280_humidity;BME280_pressure;Samples;Min_cycle;Max_cycle;Signal;HPM_P1;HPM_P2
2023/01/11 00:01:05;;;;;;;4.15;2.70;;;;;;;2.50;81.73;94574.84;4923578;29;20043;-74
2023/01/11 00:03:30;;;;;;;7.50;2.60;;;;;;;2.40;82.19;94578.09;4942030;29;20039;-73
2023/01/11 00:05:57;;;;;;;5.35;2.67;;;;;;;2.82;82.30;94636.09;4941479;29;20062;-73
2023/01/11 00:08:24;;;;;;;2.70;1.88;;;;;;;2.65;82.52;94625.63;4941449;29;20039;-73
2023/01/11 00:10:49;;;;;;;3.10;1.98;;;;;;;2.31;82.86;94582.13;4924226;29;20046;-73
2023/01/11 00:13:15;;;;;;;5.68;1.88;;;;;;;2.62;83.08;94636.56;4941410;29;20454;-72
2023/01/11 00:15:41;;;;;;;3.17;2.00;;;;;;;2.65;82.87;94646.56;4923787;29;20528;-73
2023/01/11 00:18:08;;;;;;;2.78;1.92;;;;;;;2.46;82.94;94616.38;4941454;29;20042;-73
2023/01/11 00:20:37;;;;;;;2.78;2.13;;;;;;;2.77;82.84;94645.69;4924186;29;20035;-73
2023/01/11 00:23:02;;;;;;;3.53;2.17;;;;;;;2.15;82.54;94572.41;4941124;29;20031;-73
2023/01/11 00:25:28;;;;;;;2.95;2.22;;;;;;;2.14;82.91;94581.28;4941288;29;20054;-72
2023/01/11 00:27:53;;;;;;;5.15;2.65;;;;;;;2.03;82.45;94564.66;4923814;29;20425;-73
2023/01/11 00:30:19;;;;;;;4.70;2.70;;;;;;;2.67;82.84;94665.44;4941591;29;20175;-74
2023/01/11 00:32:45;;;;;;;5.00;2.95;;;;;;;2.68;82.61;94663.59;4924484;29;20205;-76
2023/01/11 00:35:11;;;;;;;4.00;2.70;;;;;;;1.75;82.83;94520.22;4941638;29;20494;-76
2023/01/11 00:37:36;;;;;;;3.67;2.50;;;;;;;2.43;82.90;94619.50;4923936;29;20041;-76
2023/01/11 00:40:02;;;;;;;4.82;2.92;;;;;;;2.52;82.50;94618.06;4941362;29;20035;-74
2023/01/11 00:47:55;;;;;;;6.95;3.22;;;;;;;2.50;84.00;94654.16;4940645;29;20050;-74
2023/01/11 00:50:21;;;;;;;6.47;3.78;;;;;;;2.03;83.87;94603.88;4940886;29;20039;-75
2023/01/11 00:52:47;;;;;;;6.30;3.88;;;;;;;2.37;83.79;94659.66;4922931;29;20500;-75
2023/01/11 00:55:12;;;;;;;5.57;3.60;;;;;;;2.20;83.30;94615.19;4941247;29;20125;-75
2023/01/11 00:57:38;;;;;;;6.75;4.30;;;;;;;2.26;83.91;94666.56;4923811;29;20811;-74
2023/01/11 01:00:04;;;;;;;7.57;4.20;;;;;;;1.77;84.69;94605.22;4940938;29;20774;-74
2023/01/11 01:02:31;;;;;;;8.68;4.75;;;;;;;2.36;84.47;94671.19;4922738;29;20054;-74
2023/01/11 01:04:56;;;;;;;10.80;4.97;;;;;;;2.34;83.72;94641.84;4940646;29;20039;-74
2023/01/11 01:07:22;;;;;;;8.15;4.25;;;;;;;1.96;83.20;94560.59;4923111;29;20035;-75
2023/01/11 01:09:47;;;;;;;8.00;4.55;;;;;;;2.50;83.24;94637.66;4940404;29;20039;-74
2023/01/11 01:14:24;;;;;;;6.82;4.82;;;;;;;2.65;82.94;94662.28;4940887;28;20134;-74
2023/01/11 01:14:59;;;;;;;8.30;4.60;;;;;;;2.73;83.05;94666.34;4939848;29;20043;-74
2023/01/11 01:17:25;;;;;;;8.65;4.75;;;;;;;2.72;82.46;94667.34;4940542;29;20035;-74
2023/01/11 01:19:50;;;;;;;12.57;5.60;;;;;;;2.37;82.80;94604.72;4922381;29;20522;-74
2023/01/11 01:22:16;;;;;;;8.80;5.15;;;;;;;2.71;82.40;94674.41;4922162;29;20046;-73
2023/01/11 01:24:42;;;;;;;9.27;5.32;;;;;;;2.68;82.23;94658.38;4940072;29;20134;-73
2023/01/11 01:27:08;;;;;;;9.70;5.13;;;;;;;2.52;82.29;94643.44;4936520;28;20062;-73
2023/01/11 01:29:33;;;;;;;8.32;5.35;;;;;;;2.43;81.95;94611.66;4940039;29;20039;-74
2023/01/11 01:31:58;;;;;;;14.48;5.82;;;;;;;2.37;81.85;94617.00;4939775;29;20039;-74
2023/01/11 01:34:24;;;;;;;10.77;5.82;;;;;;;2.81;82.13;94684.28;4938463;29;20602;-73
2023/01/11 01:36:49;;;;;;;11.40;5.60;;;;;;;1.94;82.47;94584.34;4939066;28;20039;-74
2023/01/11 01:39:15;;;;;;;13.77;6.35;;;;;;;2.12;82.46;94604.28;4939181;28;20039;-73
2023/01/11 01:41:40;;;;;;;9.95;6.47;;;;;;;2.65;82.11;94685.84;4939590;28;20106;-74
2023/01/11 01:44:43;;;;;;;11.18;6.20;;;;;;;2.70;82.24;94687.75;4939913;28;20043;-74
2023/01/11 01:47:09;;;;;;;11.50;6.93;;;;;;;2.59;82.23;94665.06;4937878;29;20027;-73
2023/01/11 01:49:36;;;;;;;11.80;6.50;;;;;;;2.33;82.09;94635.00;4939482;28;20042;-73
2023/01/11 01:52:03;;;;;;;10.98;6.57;;;;;;;2.70;82.34;94687.75;4940034;28;20031;-73
2023/01/11 01:54:35;;;;;;;10.95;6.47;;;;;;;2.65;82.02;94680.59;4940294;28;20043;-74
2023/01/11 01:57:08;;;;;;;12.82;6.18;;;;;;;2.70;82.43;94680.69;4939761;28;20039;-74
2023/01/11 01:59:33;;;;;;;10.32;6.03;;;;;;;2.69;82.74;94679.09;4939726;28;20035;-74
2023/01/11 02:02:00;;;;;;;11.75;6.55;;;;;;;2.50;82.76;94645.50;4938711;28;20037;-76
2023/01/11 02:04:47;;;;;;;10.77;6.63;;;;;;;2.38;82.62;94647.38;4939015;28;20593;-74
2023/01/11 02:07:18;;;;;;;10.65;6.47;;;;;;;2.32;82.40;94634.22;4940166;28;20118;-75
2023/01/11 02:09:56;;;;;;;12.43;7.38;;;;;;;2.66;82.25;94694.50;4940250;28;20111;-76
2023/01/11 02:12:26;;;;;;;16.02;8.15;;;;;;;2.67;82.60;94701.31;4939215;28;20872;-76
2023/01/11 02:14:53;;;;;;;12.20;7.32;;;;;;;2.54;82.26;94691.13;4937682;28;20057;-76
2023/01/11 02:17:20;;;;;;;11.50;7.57;;;;;;;2.60;82.27;94693.59;4938912;28;20097;-75
2023/01/11 02:19:54;;;;;;;11.27;7.10;;;;;;;2.46;82.37;94676.59;4938502;28;20043;-75
2023/01/11 02:22:22;;;;;;;12.15;7.25;;;;;;;2.68;82.56;94718.59;4938562;28;20035;-75
2023/01/11 02:25:09;;;;;;;13.63;7.53;;;;;;;2.54;83.18;94717.28;4938848;28;20581;-75
2023/01/11 02:28:09;;;;;;;12.02;7.82;;;;;;;2.63;82.99;94732.41;4937513;29;20047;-75
2023/01/11 02:30:53;;;;;;;14.32;8.43;;;;;;;2.65;83.26;94737.41;4938914;28;20050;-77
2023/01/11 02:33:24;;;;;;;14.40;7.93;;;;;;;2.67;83.21;94736.13;4938945;28;20042;-75
2023/01/11 02:36:16;;;;;;;15.63;8.57;;;;;;;2.69;82.93;94741.94;4937047;28;20126;-76
2023/01/11 02:39:03;;;;;;;14.65;7.57;;;;;;;2.71;83.00;94744.31;4939784;28;20093;-75
2023/01/11 02:47:33;;;;;;;14.40;7.80;;;;;;;2.65;83.43;94748.69;4941065;29;20049;-75
2023/01/11 02:50:10;;;;;;;12.63;7.38;;;;;;;2.68;83.48;94755.25;4942954;28;20649;-75
2023/01/11 02:53:05;;;;;;;15.13;7.40;;;;;;;2.72;83.62;94765.03;4940830;29;20031;-76
2023/01/11 02:55:37;;;;;;;10.57;6.68;;;;;;;1.98;83.78;94635.19;4931241;28;20051;-74
2023/01/11 02:58:07;;;;;;;12.93;6.95;;;;;;;2.43;83.68;94713.72;4942882;28;20070;-75
2023/01/11 03:00:36;;;;;;;10.38;6.47;;;;;;;2.73;83.61;94752.75;4941190;28;20086;-74
2023/01/11 03:03:23;;;;;;;10.63;6.78;;;;;;;2.74;83.72;94761.38;4942524;28;20050;-76
2023/01/11 03:06:10;;;;;;;13.88;7.25;;;;;;;2.84;83.66;94759.72;4942579;28;20035;-74
2023/01/11 03:09:17;;;;;;;12.18;7.25;;;;;;;2.88;83.61;94760.06;4942640;28;20121;-74
2023/01/11 03:12:55;;;;;;;11.68;6.93;;;;;;;2.92;83.49;94766.41;4940244;29;20600;-74
2023/01/11 03:15:08;;;;;;;11.00;6.70;;;;;;;2.93;83.31;94765.38;4937511;28;20877;-74
2023/01/11 03:17:58;;;;;;;13.48;6.78;;;;;;;2.55;83.12;94703.97;4942315;29;20059;-73
2023/01/11 03:20:30;;;;;;;11.88;7.32;;;;;;;2.61;83.11;94716.13;4942344;28;20187;-72
2023/01/11 03:23:14;;;;;;;12.93;6.78;;;;;;;2.96;83.17;94759.69;4943313;28;20039;-75
2023/01/11 03:25:57;;;;;;;14.32;6.95;;;;;;;2.82;83.27;94756.56;4940930;28;20058;-72
2023/01/11 03:29:00;;;;;;;9.38;6.15;;;;;;;2.67;83.20;94757.06;4941965;28;20070;-73
2023/01/11 03:31:33;;;;;;;10.95;6.65;;;;;;;2.59;83.18;94756.69;4940561;29;20411;-72
2023/01/11 03:34:17;;;;;;;10.43;6.75;;;;;;;2.30;83.67;94753.22;4942452;28;20039;-74
2023/01/11 03:36:56;;;;;;;13.48;6.55;;;;;;;2.24;84.36;94752.34;4940711;28;20608;-74
2023/01/11 03:39:54;;;;;;;12.85;6.85;;;;;;;2.27;84.99;94753.69;4942082;28;20206;-74
2023/01/11 03:42:22;;;;;;;13.07;7.68;;;;;;;2.28;84.20;94729.94;4920382;29;20047;-74
2023/01/11 03:44:54;;;;;;;14.13;7.53;;;;;;;1.52;84.68;94629.06;4941753;28;20027;-74
2023/01/11 03:47:22;;;;;;;11.45;7.22;;;;;;;2.49;84.54;94761.72;4942233;28;20043;-74
2023/01/11 03:49:53;;;;;;;15.18;6.97;;;;;;;2.22;84.32;94724.81;4941259;28;20035;-74
2023/01/11 03:52:24;;;;;;;13.50;6.93;;;;;;;2.58;84.18;94763.72;4942487;28;20063;-74
2023/01/11 03:54:50;;;;;;;11.07;7.40;;;;;;;2.60;83.89;94763.47;4940587;28;20046;-74
2023/01/11 03:57:22;;;;;;;16.77;8.75;;;;;;;2.74;83.81;94777.09;4942025;28;20494;-74
2023/01/11 03:59:49;;;;;;;12.10;7.05;;;;;;;2.79;83.92;94767.50;4939877;28;20031;-74
2023/01/11 04:02:20;;;;;;;12.52;8.30;;;;;;;2.87;83.29;94774.19;4941315;28;20042;-74
2023/01/11 04:04:46;;;;;;;;;;;;;;;2.75;83.40;94766.38;4942651;28;20063;-74
2023/01/11 04:07:11;;;;;;;13.93;8.48;;;;;;;2.74;82.90;94775.28;4940503;29;19974;-74
2023/01/11 04:09:37;;;;;;;15.77;9.68;;;;;;;2.44;83.55;94719.75;4940984;28;20038;-74
2023/01/11 04:12:02;;;;;;;12.68;8.95;;;;;;;2.77;83.56;94766.13;4941017;28;20039;-74
2023/01/11 04:14:28;;;;;;;21.10;11.02;;;;;;;2.24;84.73;94723.56;4939510;29;20122;-74
2023/01/11 04:16:53;;;;;;;18.50;12.15;;;;;;;2.64;84.39;94783.72;4941436;29;20399;-74
2023/01/11 04:19:19;;;;;;;17.30;11.10;;;;;;;2.69;84.42;94780.41;4939492;29;20747;-73
2023/01/11 04:21:44;;;;;;;16.98;10.07;;;;;;;2.72;84.65;94788.59;4941122;29;20046;-73
2023/01/11 04:24:12;;;;;;;19.40;11.50;;;;;;;2.55;84.48;94761.56;4941631;28;20572;-74
2023/01/11 04:26:38;;;;;;;18.63;11.20;;;;;;;2.81;84.73;94794.25;4953180;28;20055;-74
2023/01/11 04:29:03;;;;;;;15.90;9.52;;;;;;;2.14;83.86;94706.84;4960328;28;20081;-74
2023/01/11 04:31:29;;;;;;;15.38;9.40;;;;;;;2.53;84.36;94794.22;4960727;28;20031;-74
2023/01/11 04:33:54;;;;;;;21.17;8.98;;;;;;;2.04;84.43;94736.25;4960159;28;20046;-74
2023/01/11 04:36:19;;;;;;;17.05;10.15;;;;;;;2.65;84.48;94808.09;4959944;28;20065;-75
2023/01/11 04:38:45;;;;;;;19.70;10.95;;;;;;;2.72;84.50;94806.13;4959992;28;20027;-74
2023/01/11 04:43:55;;;;;;;17.58;9.50;;;;;;;1.94;84.36;94730.78;4960730;28;20101;-73
2023/01/11 04:46:21;;;;;;;18.80;9.70;;;;;;;2.44;84.19;94814.72;4960383;28;20521;-73
2023/01/11 04:48:47;;;;;;;16.55;9.52;;;;;;;2.41;84.29;94815.22;4959398;28;20031;-72
2023/01/11 04:51:12;;;;;;;13.15;8.48;;;;;;;2.39;84.90;94817.25;4941741;28;20035;-72
2023/01/11 04:53:37;;;;;;;15.20;9.05;;;;;;;2.48;84.75;94815.88;4939765;28;20042;-73
2023/01/11 04:56:05;;;;;;;12.57;8.25;;;;;;;2.66;84.59;94820.16;4958871;28;20133;-73
2023/01/11 04:58:32;;;;;;;9.15;5.18;;;;;;;2.40;83.30;94824.09;4941631;28;20031;-74
2023/01/11 05:00:57;;;;;;;9.43;5.75;;;;;;;2.48;83.80;94825.56;4959030;28;20034;-73
2023/01/11 05:03:23;;;;;;;9.75;5.47;;;;;;;2.64;83.69;94827.44;4959309;28;20050;-73
2023/01/11 05:05:56;;;;;;;10.50;5.60;;;;;;;2.78;83.20;94836.63;4929543;29;20536;-75
2023/01/11 05:08:22;;;;;;;8.82;5.35;;;;;;;2.16;83.66;94778.06;4920921;29;20124;-73
2023/01/11 05:10:52;;;;;;;9.43;5.80;;;;;;;2.59;83.86;94832.59;4919592;29;20135;-74
2023/01/11 05:13:18;;;;;;;8.80;4.53;;;;;;;2.16;82.90;94788.53;4934450;28;20825;-74
2023/01/11 05:15:43;;;;;;;9.73;5.15;;;;;;;2.43;83.49;94843.78;4920660;29;20049;-74
2023/01/11 05:24:00;;;;;;;7.72;4.57;;;;;;;2.59;82.74;94848.31;4981076;28;20495;-75
2023/01/11 05:26:28;;;;;;;7.72;4.53;;;;;;;2.11;82.95;94773.53;4963849;28;20049;-75
2023/01/11 05:28:56;;;;;;;7.80;4.88;;;;;;;2.49;83.55;94845.47;4980534;28;20026;-75
2023/01/11 05:31:22;;;;;;;7.80;3.67;;;;;;;2.32;83.81;94808.75;4974192;28;20436;-75
2023/01/11 05:33:48;;;;;;;8.23;4.07;;;;;;;2.23;83.81;94808.31;4972187;28;20056;-76
2023/01/11 05:36:17;;;;;;;8.68;4.20;;;;;;;2.56;83.44;94860.03;4970923;28;20045;-76
2023/01/11 05:38:45;;;;;;;8.43;4.28;;;;;;;2.36;83.18;94836.06;4979028;28;20060;-75
2023/01/11 05:41:11;;;;;;;6.40;4.28;;;;;;;2.44;83.35;94850.59;4966461;28;20046;-74
2023/01/11 05:45:27;;;;;;;7.68;4.68;;;;;;;2.41;83.48;94836.16;4979304;28;20472;-74
2023/01/11 05:46:24;;;;;;;5.82;3.95;;;;;;;2.32;83.95;94824.44;4980239;28;20322;-74
2023/01/11 05:48:50;;;;;;;7.88;4.47;;;;;;;2.31;83.13;94835.94;4968591;28;20100;-74
2023/01/11 05:51:15;;;;;;;7.50;4.28;;;;;;;2.49;83.19;94869.03;4962033;28;20141;-74
2023/01/11 05:53:41;;;;;;;6.47;4.18;;;;;;;1.67;83.27;94742.78;4966020;28;20034;-75
2023/01/11 05:56:07;;;;;;;6.70;3.85;;;;;;;2.22;82.49;94830.25;4959011;28;20046;-75
2023/01/11 05:58:32;;;;;;;6.20;4.30;;;;;;;2.25;83.21;94831.63;4978479;28;20085;-75
2023/01/11 06:00:58;;;;;;;4.80;3.53;;;;;;;2.42;82.78;94876.22;4956243;28;20331;-76
2023/01/11 06:03:25;;;;;;;6.90;4.50;;;;;;;2.41;83.34;94887.69;4975441;28;20117;-75
2023/01/11 06:05:51;;;;;;;5.35;3.30;;;;;;;2.29;82.68;94885.88;4963245;28;20053;-75
2023/01/11 06:08:17;;;;;;;5.10;3.65;;;;;;;2.32;83.61;94885.44;4968172;28;20034;-76
2023/01/11 06:10:45;;;;;;;6.03;4.13;;;;;;;1.90;83.40;94815.97;4965504;28;20042;-76
2023/01/11 06:13:25;;;;;;;5.60;3.78;;;;;;;2.52;83.03;94895.53;4975833;28;20459;-77
2023/01/11 06:15:57;;;;;;;4.50;2.87;;;;;;;2.20;82.43;94881.25;4962035;28;20037;-76
2023/01/11 06:18:22;;;;;;;;;;;;;;;2.33;82.90;94910.56;4979729;28;20582;-79
2023/01/11 06:20:53;;;;;;;8.60;4.97;;;;;;;2.36;83.01;94884.97;4963525;28;20901;-78
2023/01/11 06:23:19;;;;;;;4.55;3.10;;;;;;;2.43;82.00;94894.31;4955131;28;20192;-76
2023/01/11 06:25:44;;;;;;;5.47;3.83;;;;;;;2.60;82.27;94903.03;4970489;28;20040;-76
2023/01/11 06:28:11;;;;;;;4.80;3.63;;;;;;;2.46;nan;94866.84;4980031;28;20479;-76
2023/01/11 06:30:36;;;;;;;5.50;3.65;;;;;;;2.48;81.25;94904.06;4960186;28;20042;-77
2023/01/11 06:33:05;;;;;;;9.70;3.75;;;;;;;2.36;81.51;94891.00;4980280;28;20135;-77
2023/01/11 06:35:39;;;;;;;5.50;3.33;;;;;;;2.66;81.79;94933.53;4980602;28;20034;-77
2023/01/11 06:38:06;;;;;;;8.50;4.47;;;;;;;2.48;82.36;94920.56;4961992;28;20034;-76
2023/01/11 06:40:32;;;;;;;6.38;3.70;;;;;;;2.68;82.14;94935.91;4948336;28;20030;-77
2023/01/11 06:42:58;;;;;;;5.65;3.03;;;;;;;2.63;81.74;94909.63;4980391;28;21523;-77
2023/01/11 06:45:23;;;;;;;7.47;3.83;;;;;;;2.15;81.88;94839.25;4971033;28;20030;-76
2023/01/11 06:47:48;;;;;;;9.75;4.05;;;;;;;2.74;81.44;94918.50;4961764;28;20048;-77
2023/01/11 06:50:15;;;;;;;6.70;4.40;;;;;;;2.60;80.30;94905.63;4982377;28;20042;-77
2023/01/11 06:52:40;;;;;;;10.43;5.70;;;;;;;2.77;80.79;94925.88;4979328;28;20122;-78
2023/01/11 06:55:06;;;;;;;9.52;4.90;;;;;;;3.01;80.43;94946.56;4975930;28;20435;-76
2023/01/11 06:57:32;;;;;;;6.72;4.40;;;;;;;2.18;79.86;94829.13;4966180;28;20034;-76
2023/01/11 06:59:58;;;;;;;7.13;4.65;;;;;;;2.84;80.59;94927.34;4960636;28;20034;-77
2023/01/11 07:02:23;;;;;;;11.35;4.63;;;;;;;2.91;80.35;94942.94;4959245;28;20085;-79
2023/01/11 07:04:49;;;;;;;8.68;4.95;;;;;;;2.12;80.61;94848.38;4975114;28;20115;-75
2023/01/11 07:07:14;;;;;;;5.85;3.78;;;;;;;2.51;80.29;94891.34;4974750;28;20073;-75
2023/01/11 07:09:40;;;;;;;8.13;4.40;;;;;;;2.81;78.68;94964.50;4979058;28;20480;-74
2023/01/11 07:12:05;;;;;;;10.65;5.85;;;;;;;2.93;79.40;94974.94;4964490;28;20042;-78
2023/01/11 07:14:31;;;;;;;11.15;5.90;;;;;;;2.89;80.50;94961.53;4967080;28;20100;-77
2023/01/11 07:16:56;;;;;;;15.57;5.70;;;;;;;3.03;78.65;94983.00;4963494;28;20495;-77
2023/01/11 07:19:21;;;;;;;7.88;4.25;;;;;;;2.74;78.34;94928.97;4977485;28;20030;-77
2023/01/11 07:21:47;;;;;;;10.60;4.03;;;;;;;2.82;78.05;94941.72;4958107;28;20093;-77
2023/01/11 07:24:12;;;;;;;7.57;4.43;;;;;;;2.81;78.15;94933.06;4979313;28;20046;-78
2023/01/11 07:26:40;;;;;;;6.53;4.00;;;;;;;2.45;78.61;94896.66;4970972;28;20034;-77
2023/01/11 07:29:09;;;;;;;9.57;5.88;;;;;;;3.13;78.76;94985.06;4959555;28;20201;-78
2023/01/11 07:31:35;;;;;;;5.20;3.10;;;;;;;2.74;78.20;94939.44;4976436;28;20046;-78
2023/01/11 07:34:01;;;;;;;5.80;4.00;;;;;;;2.45;78.65;94905.31;4978494;28;20518;-74
2023/01/11 07:36:26;;;;;;;10.10;5.22;;;;;;;2.71;78.82;94945.94;4978583;28;20042;-76
2023/01/11 07:38:51;;;;;;;13.30;4.88;;;;;;;2.61;78.98;94943.09;4977679;28;20041;-76
2023/01/11 07:44:01;;;;;;;6.85;4.47;;;;;;;3.19;78.18;94979.69;4979575;28;20186;-76
2023/01/11 07:46:26;;;;;;;8.80;4.88;;;;;;;2.97;78.74;94945.44;4962032;28;20337;-76
2023/01/11 07:48:52;;;;;;;9.52;5.18;;;;;;;3.30;79.33;95004.25;4962088;28;20052;-78
2023/01/11 07:51:22;;;;;;;7.18;4.30;;;;;;;3.30;79.32;95002.41;4983477;28;20064;-76
2023/01/11 07:53:49;;;;;;;9.60;5.78;;;;;;;2.66;78.61;94903.94;4971298;28;20169;-79
2023/01/11 07:56:14;;;;;;;9.68;5.43;;;;;;;3.15;78.85;94968.06;4970622;28;20512;-78
2023/01/11 07:58:39;;;;;;;4.63;3.30;;;;;;;2.78;78.30;94938.75;4960849;28;20350;-75
2023/01/11 08:01:05;;;;;;;7.60;2.90;;;;;;;2.76;77.82;94961.75;4983378;28;20046;-76
2023/01/11 08:03:30;;;;;;;6.13;3.55;;;;;;;2.87;78.58;94971.41;4972651;28;20139;-79
2023/01/11 08:05:56;;;;;;;6.60;3.95;;;;;;;2.90;78.98;94967.56;4973716;28;20427;-75
2023/01/11 08:08:22;;;;;;;4.75;2.92;;;;;;;3.27;77.80;95026.50;4974814;28;20493;-75
2023/01/11 08:14:37;;;;;;;5.32;3.08;;;;;;;2.69;77.64;94966.31;4974509;28;20045;-75
2023/01/11 08:16:20;;;;;;;5.75;3.63;;;;;;;3.10;78.12;95034.25;4977489;28;20056;-76
2023/01/11 08:18:45;;;;;;;6.40;3.30;;;;;;;3.04;78.16;95029.16;4949156;28;20022;-77
2023/01/11 08:21:11;;;;;;;7.60;3.28;;;;;;;2.58;77.53;94994.09;4973637;28;20070;-76
2023/01/11 08:23:36;;;;;;;5.93;3.00;;;;;;;2.76;77.72;95061.25;4977758;28;20058;-78
2023/01/11 08:26:02;;;;;;;10.32;3.33;;;;;;;2.67;77.30;95025.97;4970114;28;20034;-77
2023/01/11 08:28:27;;;;;;;5.10;2.85;;;;;;;2.99;76.83;95084.03;4979988;28;20077;-78
2023/01/11 08:30:53;;;;;;;5.68;3.03;;;;;;;2.49;77.72;94994.66;4980148;28;20451;-77
2023/01/11 08:33:18;;;;;;;13.32;3.90;;;;;;;3.25;78.48;95075.72;4976964;28;20060;-76
2023/01/11 08:35:44;;;;;;;9.07;3.35;;;;;;;3.18;78.14;95059.31;4954077;28;20038;-77
2023/01/11 08:38:09;;;;;;;6.18;3.60;;;;;;;2.80;77.03;95017.88;4958443;28;20038;-77
2023/01/11 08:40:35;;;;;;;6.68;3.38;;;;;;;2.29;77.85;94963.56;4978187;28;20479;-77
2023/01/11 08:43:01;;;;;;;5.60;2.65;;;;;;;2.79;77.18;95042.47;4963361;28;20042;-78
2023/01/11 08:45:26;;;;;;;10.63;3.38;;;;;;;2.72;76.47;95034.75;4974399;28;20042;-76
2023/01/11 08:47:52;;;;;;;5.05;2.67;;;;;;;2.95;75.52;95051.47;4955319;28;20492;-76
2023/01/11 08:50:19;;;;;;;5.45;2.83;;;;;;;2.71;75.75;95029.72;4975440;28;20929;-78
2023/01/11 08:52:44;;;;;;;5.57;2.75;;;;;;;3.02;75.64;95067.88;4943756;28;20423;-77
2023/01/11 08:55:24;;;;;;;7.25;3.42;;;;;;;2.66;76.36;95006.06;4974064;28;20046;-86
2023/01/11 08:57:50;;;;;;;11.30;3.57;;;;;;;3.07;76.54;95076.63;4974182;28;20523;-78
2023/01/11 09:00:16;;;;;;;7.55;2.72;;;;;;;2.88;76.67;95042.94;4980535;28;20034;-78
2023/01/11 09:02:44;;;;;;;9.45;3.60;;;;;;;2.86;76.48;95032.69;4972315;28;20046;-78
2023/01/11 09:05:09;;;;;;;10.27;3.00;;;;;;;3.09;77.10;95095.53;4969996;28;20034;-77
2023/01/11 09:07:34;;;;;;;6.55;2.80;;;;;;;3.42;76.20;95104.66;4975149;28;20038;-77
2023/01/11 09:10:00;;;;;;;17.02;4.15;;;;;;;2.95;76.98;95028.69;4978659;28;20045;-77
2023/01/11 09:12:26;;;;;;;7.72;3.70;;;;;;;2.93;76.13;95037.81;4976573;28;20112;-77
2023/01/11 09:14:51;;;;;;;9.27;3.65;;;;;;;2.63;76.39;94975.09;4960843;28;20519;-77
2023/01/11 09:17:17;;;;;;;23.88;6.43;;;;;;;3.60;75.94;95101.06;4974054;28;20043;-77
2023/01/11 09:19:42;;;;;;;10.18;4.60;;;;;;;2.67;75.71;94984.88;4959046;28;20045;-81
2023/01/11 09:22:08;;;;;;;8.07;3.70;;;;;;;2.25;76.26;94934.47;4960568;28;20050;-77
2023/01/11 09:24:33;;;;;;;8.63;4.53;;;;;;;3.06;76.03;95040.97;4974036;28;20061;-76
2023/01/11 09:26:59;;;;;;;12.25;4.97;;;;;;;3.42;76.55;95073.19;4960358;28;20105;-77
2023/01/11 09:29:25;;;;;;;8.18;3.83;;;;;;;3.22;76.77;95052.56;4964966;28;20037;-76
2023/01/11 09:31:50;;;;;;;11.25;5.47;;;;;;;3.43;75.86;95062.44;4969803;28;20041;-79
2023/01/11 09:34:15;;;;;;;16.02;5.85;;;;;;;3.53;76.12;95074.97;4955906;28;20065;-77
2023/01/11 09:36:41;;;;;;;14.52;4.68;;;;;;;3.52;75.73;95094.34;4976257;28;20258;-79
2023/01/11 09:39:13;;;;;;;13.23;4.18;;;;;;;3.58;75.75;95053.31;4972808;28;20496;-77
2023/01/11 09:41:41;;;;;;;10.68;4.10;;;;;;;3.96;73.91;95100.75;4974044;28;20041;-76
2023/01/11 09:44:15;;;;;;;7.82;4.28;;;;;;;4.04;74.63;95083.84;4979895;28;20045;-81
2023/01/11 09:46:45;;;;;;;13.88;3.75;;;;;;;3.67;74.47;95080.75;4974658;28;20028;-80
2023/01/11 09:49:36;;;;;;;8.95;3.90;;;;;;;3.58;75.39;95046.25;4972132;28;20046;-77
2023/01/11 09:52:42;;;;;;;14.77;4.85;;;;;;;3.44;75.56;95037.81;4973961;28;20038;-77
2023/01/11 09:55:23;;;;;;;11.68;2.65;;;;;;;3.34;74.08;95042.09;4974233;28;20046;-76
2023/01/11 09:57:54;;;;;;;5.78;1.90;;;;;;;3.71;72.82;95110.72;4958275;28;20058;-77
2023/01/11 10:00:39;;;;;;;5.38;2.00;;;;;;;3.68;72.68;95117.22;4973445;28;20045;-78
2023/01/11 10:03:35;;;;;;;3.75;2.15;;;;;;;3.57;73.20;95120.69;4969969;28;20520;-79
2023/01/11 10:06:09;;;;;;;7.97;3.53;;;;;;;3.52;75.33;95107.47;4984839;28;20132;-78
2023/01/11 10:08:42;;;;;;;7.25;3.05;;;;;;;3.54;74.92;95108.03;4981549;28;20030;-77
2023/01/11 10:11:19;;;;;;;3.15;2.30;;;;;;;2.77;74.78;94983.50;4977367;28;20091;-77
2023/01/11 10:14:07;;;;;;;5.00;2.60;;;;;;;3.55;76.51;95120.13;4977235;28;20159;-77
2023/01/11 10:17:00;;;;;;;6.93;2.30;;;;;;;3.39;74.45;95069.19;4980410;28;20038;-76
2023/01/11 10:19:35;;;;;;;11.10;2.90;;;;;;;3.45;73.53;95085.81;4986953;28;20647;-77
2023/01/11 10:22:32;;;;;;;9.45;2.40;;;;;;;3.84;74.09;95116.50;4975684;28;20102;-76
2023/01/11 10:25:15;;;;;;;4.75;2.55;;;;;;;3.83;73.89;95091.31;4944177;28;20076;-78
2023/01/11 10:27:57;;;;;;;4.22;2.33;;;;;;;3.48;71.40;95038.97;4946517;28;20100;-79
2023/01/11 10:36:33;;;;;;;5.65;3.88;;;;;;;4.28;72.60;95116.78;4965950;28;20488;-75
2023/01/11 10:41:56;;;;;;;13.10;3.33;;;;;;;4.02;71.90;95059.66;4968789;28;20110;-76
2023/01/11 10:44:43;;;;;;;6.53;2.85;;;;;;;4.36;70.53;95103.28;4971579;28;20278;-75
2023/01/11 10:47:20;;;;;;;9.45;3.22;;;;;;;4.21;70.78;95071.53;4973503;28;20030;-76
2023/01/11 10:50:18;;;;;;;5.95;2.97;;;;;;;4.24;70.72;95050.06;4973491;28;20496;-76
2023/01/11 10:53:04;;;;;;;17.15;3.92;;;;;;;4.75;71.01;95101.59;4961568;28;20796;-77
2023/01/11 10:55:50;;;;;;;7.18;3.22;;;;;;;4.22;69.81;95023.25;4977492;28;20477;-76
2023/01/11 10:58:48;;;;;;;7.10;3.30;;;;;;;4.63;68.99;95099.03;4956808;28;20066;-76
2023/01/11 11:01:45;;;;;;;11.10;2.88;;;;;;;4.56;69.42;95101.03;4974070;28;20162;-75
2023/01/11 11:04:20;;;;;;;8.48;3.10;;;;;;;4.27;69.10;95071.38;4968130;28;20034;-78
2023/01/11 11:07:14;;;;;;;5.75;3.17;;;;;;;4.04;70.30;95021.66;4976996;28;20096;-75
2023/01/11 11:09:48;;;;;;;6.90;3.38;;;;;;;4.59;69.86;95094.47;4977362;28;20494;-77
2023/01/11 11:12:24;;;;;;;10.80;3.42;;;;;;;4.40;69.68;95108.88;4973472;28;20258;-77
2023/01/11 11:15:18;;;;;;;5.38;2.85;;;;;;;4.31;69.66;95094.53;4973079;28;20034;-77
2023/01/11 11:17:49;;;;;;;4.45;2.70;;;;;;;4.05;69.81;95074.91;4939328;28;20038;-77
2023/01/11 11:20:17;;;;;;;5.47;2.77;;;;;;;4.18;69.62;95106.94;4975274;28;20147;-79
2023/01/11 11:22:43;;;;;;;5.95;3.42;;;;;;;3.62;70.74;95007.22;4966290;28;20302;-77
2023/01/11 11:25:17;;;;;;;3.92;2.70;;;;;;;4.28;70.33;95099.22;4968761;28;20034;-79
2023/01/11 11:27:49;;;;;;;7.95;3.63;;;;;;;4.26;71.66;95100.50;4947881;28;20237;-77
2023/01/11 11:30:25;;;;;;;8.50;3.88;;;;;;;4.01;72.09;95043.09;4957073;28;20614;-78
2023/01/11 11:32:58;;;;;;;10.13;3.28;;;;;;;4.44;71.41;95074.03;4973164;28;20041;-75
2023/01/11 11:35:43;;;;;;;15.38;3.92;;;;;;;4.67;70.18;95096.72;4967018;28;20113;-76
2023/01/11 11:38:30;;;;;;;13.60;3.90;;;;;;;4.35;69.97;95043.16;4950832;28;20042;-76
2023/01/11 11:41:03;;;;;;;7.55;3.47;;;;;;;4.75;69.32;95101.59;4956707;28;20039;-76
2023/01/11 11:43:34;;;;;;;7.72;4.43;;;;;;;4.78;69.34;95095.06;4955942;28;20042;-76
2023/01/11 11:46:03;;;;;;;11.82;3.80;;;;;;;4.71;68.31;95089.97;4959061;28;20034;-76
2023/01/11 11:48:33;;;;;;;6.47;4.13;;;;;;;4.75;67.48;95093.69;4956998;28;20051;-76
2023/01/11 11:51:05;;;;;;;35.60;6.05;;;;;;;4.88;68.57;95084.72;4983143;28;20452;-76
2023/01/11 11:53:52;;;;;;;8.32;3.80;;;;;;;5.21;67.20;95113.59;4974161;28;20046;-76
2023/01/11 11:56:20;;;;;;;6.63;3.95;;;;;;;5.27;67.24;95114.44;4959204;28;20070;-77
2023/01/11 11:58:47;;;;;;;7.82;3.47;;;;;;;4.11;66.95;95003.13;4971242;28;20448;-76
2023/01/11 12:01:26;;;;;;;5.07;3.42;;;;;;;4.60;68.15;95089.00;4970578;28;21796;-76
2023/01/11 12:03:58;;;;;;;6.45;3.38;;;;;;;4.79;66.17;95118.47;4967835;28;20767;-76
2023/01/11 12:06:29;;;;;;;5.20;3.63;;;;;;;4.74;66.98;95117.56;4975134;28;20090;-76
2023/01/11 12:08:57;;;;;;;5.88;3.38;;;;;;;4.59;64.87;95123.38;4961794;28;20448;-76
2023/01/11 12:11:37;;;;;;;5.18;3.33;;;;;;;4.21;63.07;95077.56;4974030;28;20049;-76
2023/01/11 12:14:09;;;;;;;7.95;3.20;;;;;;;4.31;64.91;95113.72;4952168;28;20495;-78
2023/01/11 12:16:41;;;;;;;4.40;2.90;;;;;;;4.26;66.30;95117.06;4971179;28;20058;-78
2023/01/11 12:19:47;;;;;;;10.07;4.32;;;;;;;4.36;67.50;95119.03;4965425;28;20082;-79
2023/01/11 12:22:23;;;;;;;12.45;3.80;;;;;;;4.28;67.57;95125.47;4963981;28;20059;-76
2023/01/11 12:25:01;;;;;;;6.72;3.75;;;;;;;4.18;67.83;95124.50;4940423;28;20071;-75
2023/01/11 12:27:45;;;;;;;12.75;3.88;;;;;;;4.26;68.54;95121.50;4948515;28;20038;-77
2023/01/11 12:30:13;;;;;;;9.27;4.80;;;;;;;4.23;68.57;95121.97;4938372;28;20085;-77
2023/01/11 12:32:58;;;;;;;15.63;5.78;;;;;;;4.31;69.63;95121.59;4950920;28;20434;-76